Time;durP1;ratioP1;P1;durP2;ratioP2;P2;SDS_P1;SDS_P2;PMS_P1;PMS_P2;Temp;Humidity;BMP_temperature;BMP_pressure;BME280_temperature;BME280_humidity;BME280_pressure;Samples;Min_cycle;Max_cycle;Signal;HPM_P1;HPM_P2
2021/03/04 00:02:07;;;;;;;101.90;62.07;;;9.80;81.00;;;;;;4901836;29;20424;-75
2021/03/04 00:04:33;;;;;;;102.10;60.77;;;9.80;81.30;;;;;;4934959;29;20116;-73
2021/03/04 00:06:58;;;;;;;98.50;60.77;;;9.70;81.10;;;;;;4930666;29;20131;-74
2021/03/04 00:09:24;;;;;;;100.50;61.93;;;9.70;81.60;;;;;;4902547;29;20093;-76
2021/03/04 00:11:50;;;;;;;101.40;60.03;;;9.70;81.40;;;;;;4901910;29;20499;-73
2021/03/04 00:14:15;;;;;;;100.63;59.67;;;9.50;81.30;;;;;;4932925;29;20039;-74
2021/03/04 00:16:41;;;;;;;98.13;57.97;;;9.50;81.80;;;;;;4933574;29;20055;-74
2021/03/04 00:19:07;;;;;;;97.37;57.50;;;9.60;82.00;;;;;;4926544;29;20544;-74
2021/03/04 00:21:32;;;;;;;96.10;58.60;;;9.50;81.60;;;;;;4920533;29;20040;-73
2021/03/04 00:23:58;;;;;;;98.43;57.87;;;9.50;81.70;;;;;;4927720;29;20441;-74
2021/03/04 00:26:24;;;;;;;104.07;59.77;;;9.50;82.00;;;;;;4933010;29;20059;-78
2021/03/04 00:28:49;;;;;;;102.40;58.93;;;9.50;82.10;;;;;;4930778;29;20058;-74
2021/03/04 00:31:15;;;;;;;94.77;56.43;;;9.60;82.40;;;;;;4901441;29;20393;-73
2021/03/04 00:33:40;;;;;;;92.27;55.67;;;9.70;82.10;;;;;;4930029;29;20032;-74
2021/03/04 00:36:07;;;;;;;92.70;54.90;;;9.70;81.90;;;;;;4916596;29;20471;-73
2021/03/04 00:38:32;;;;;;;97.03;56.23;;;9.70;81.80;;;;;;4931583;29;20034;-75
2021/03/04 00:40:58;;;;;;;99.77;57.17;;;9.60;81.70;;;;;;4890467;29;20040;-74
2021/03/04 00:43:24;;;;;;;102.03;58.83;;;9.50;82.00;;;;;;4919961;29;20040;-76
2021/03/04 00:45:50;;;;;;;94.80;57.00;;;9.40;81.80;;;;;;4932538;29;20059;-74
2021/03/04 00:48:16;;;;;;;92.70;55.73;;;9.30;82.20;;;;;;4918260;29;20302;-74
2021/03/04 00:50:41;;;;;;;95.53;56.03;;;9.40;82.50;;;;;;4931164;29;20493;-74
2021/03/04 00:53:07;;;;;;;97.73;56.77;;;9.40;82.20;;;;;;4935065;29;20064;-74
2021/03/04 00:55:33;;;;;;;91.73;53.93;;;9.40;82.30;;;;;;4931918;29;20039;-74
2021/03/04 00:58:00;;;;;;;98.73;57.90;;;9.30;82.30;;;;;;4933496;29;20036;-74
2021/03/04 01:00:26;;;;;;;95.97;56.97;;;9.20;82.40;;;;;;4932449;29;20058;-75
2021/03/04 01:02:52;;;;;;;106.60;60.23;;;9.10;82.50;;;;;;4934186;29;20031;-73
2021/03/04 01:05:17;;;;;;;103.60;60.60;;;8.90;82.60;;;;;;4932468;29;20481;-73
2021/03/04 01:07:43;;;;;;;98.83;56.50;;;8.80;83.10;;;;;;4932220;29;20054;-73
2021/03/04 01:10:12;;;;;;;99.20;54.83;;;8.70;83.30;;;;;;4913460;29;20127;-74
2021/03/04 01:12:37;;;;;;;98.27;56.30;;;8.80;83.90;;;;;;4904430;29;20032;-75
2021/03/04 01:15:14;;;;;;;98.43;55.87;;;8.80;83.90;;;;;;4914117;29;20067;-75
2021/03/04 01:17:40;;;;;;;96.07;54.80;;;8.80;83.80;;;;;;4928690;29;20040;-74
2021/03/04 01:20:16;;;;;;;99.20;57.10;;;8.80;83.90;;;;;;4914071;29;20400;-75
2021/03/04 01:22:42;;;;;;;96.63;55.23;;;8.90;83.90;;;;;;4932910;29;20460;-75
2021/03/04 01:25:08;;;;;;;97.37;57.00;;;8.90;84.10;;;;;;4932954;29;20086;-74
2021/03/04 01:27:35;;;;;;;98.73;56.57;;;9.00;84.00;;;;;;4932449;29;20083;-74
2021/03/04 01:30:03;;;;;;;97.67;55.30;;;9.00;83.60;;;;;;4931653;29;20031;-74
2021/03/04 01:32:28;;;;;;;96.93;55.97;;;9.00;83.60;;;;;;4931282;29;20074;-74
2021/03/04 01:34:54;;;;;;;95.83;55.50;;;9.00;83.60;;;;;;4930647;29;20067;-74
2021/03/04 01:37:20;;;;;;;95.17;55.17;;;9.00;83.50;;;;;;4900239;29;20103;-74
2021/03/04 01:39:45;;;;;;;94.90;54.73;;;9.00;83.50;;;;;;4906010;29;20063;-74
2021/03/04 01:42:11;;;;;;;95.37;52.07;;;9.00;83.50;;;;;;4929133;29;20063;-73
2021/03/04 01:44:37;;;;;;;98.83;54.50;;;9.00;83.60;;;;;;4931253;29;20036;-73
2021/03/04 01:47:04;;;;;;;93.30;52.50;;;9.10;83.60;;;;;;4916165;29;20131;-74
2021/03/04 01:49:30;;;;;;;93.53;53.37;;;9.00;83.30;;;;;;4933024;29;20480;-73
2021/03/04 01:51:56;;;;;;;95.50;54.33;;;9.00;83.30;;;;;;4897757;29;20036;-73
2021/03/04 01:54:22;;;;;;;103.60;56.57;;;9.00;83.30;;;;;;4927477;29;20086;-73
2021/03/04 01:56:47;;;;;;;100.37;54.73;;;8.90;83.00;;;;;;4898415;29;20095;-75
2021/03/04 01:59:14;;;;;;;100.60;54.90;;;8.90;83.20;;;;;;4915075;29;20067;-73
2021/03/04 02:01:40;;;;;;;94.40;52.27;;;8.80;83.30;;;;;;4912357;29;20035;-74
2021/03/04 02:04:06;;;;;;;98.37;53.57;;;8.80;83.60;;;;;;4912951;29;20036;-73
2021/03/04 02:07:09;;;;;;;96.13;52.67;;;8.90;83.70;;;;;;4916052;29;20032;-74
2021/03/04 02:09:37;;;;;;;101.07;53.10;;;9.00;83.50;;;;;;4929792;29;20033;-75
2021/03/04 02:12:12;;;;;;;92.97;51.47;;;8.90;83.10;;;;;;4914453;29;20036;-73
2021/03/04 02:14:56;;;;;;;99.97;52.50;;;8.90;83.10;;;;;;4920960;29;20032;-74
2021/03/04 02:17:26;;;;;;;98.23;53.23;;;8.90;83.10;;;;;;4918038;29;20047;-73
2021/03/04 02:20:17;;;;;;;97.33;51.07;;;8.80;83.10;;;;;;4932909;29;20118;-73
2021/03/04 02:22:55;;;;;;;105.07;54.20;;;8.70;83.20;;;;;;4931800;29;20024;-73
2021/03/04 02:25:27;;;;;;;97.50;51.40;;;8.60;83.20;;;;;;4933661;29;20040;-73
2021/03/04 02:27:55;;;;;;;96.87;51.93;;;8.60;83.50;;;;;;4930414;29;20044;-74
2021/03/04 02:30:26;;;;;;;93.77;49.37;;;8.60;83.40;;;;;;4916664;29;20107;-73
2021/03/04 02:32:58;;;;;;;94.97;50.67;;;8.50;83.80;;;;;;4920735;29;20039;-74
2021/03/04 02:35:29;;;;;;;95.17;50.07;;;8.50;83.60;;;;;;4933503;29;20087;-74
2021/03/04 02:38:00;;;;;;;97.30;51.73;;;8.40;83.60;;;;;;4931693;29;20065;-74
2021/03/04 02:40:30;;;;;;;106.47;55.00;;;8.40;83.60;;;;;;4928856;29;20063;-74
2021/03/04 02:42:57;;;;;;;102.83;53.73;;;8.30;83.60;;;;;;4931394;29;20031;-74
2021/03/04 02:45:25;;;;;;;112.43;58.73;;;8.30;84.30;;;;;;4920177;29;20035;-74
2021/03/04 02:47:51;;;;;;;105.83;54.90;;;8.30;84.00;;;;;;4931412;29;20107;-74
2021/03/04 02:50:18;;;;;;;97.80;52.67;;;8.20;83.90;;;;;;4934663;29;20024;-75
2021/03/04 02:52:47;;;;;;;109.50;56.60;;;8.20;84.30;;;;;;4934831;29;20023;-74
2021/03/04 02:55:13;;;;;;;108.17;57.30;;;8.20;84.10;;;;;;4919690;29;20024;-74
2021/03/04 02:57:42;;;;;;;108.77;56.60;;;8.10;84.10;;;;;;4920118;29;20043;-74
2021/03/04 03:00:12;;;;;;;110.93;57.77;;;8.00;84.20;;;;;;4936980;29;20086;-74
2021/03/04 03:02:40;;;;;;;108.20;56.07;;;7.90;84.50;;;;;;4934496;29;20503;-76
2021/03/04 03:05:09;;;;;;;102.67;54.63;;;7.90;85.30;;;;;;4933413;29;20115;-75
2021/03/04 03:07:38;;;;;;;106.63;55.07;;;7.90;85.10;;;;;;4935576;29;20038;-74
2021/03/04 03:10:05;;;;;;;94.13;51.30;;;8.00;85.60;;;;;;4932741;29;20027;-74
2021/03/04 03:12:33;;;;;;;105.77;55.60;;;8.20;85.60;;;;;;4934145;29;20084;-76
2021/03/04 03:15:00;;;;;;;99.50;55.13;;;8.40;85.20;;;;;;4923568;29;20032;-75
2021/03/04 03:17:25;;;;;;;96.00;50.63;;;8.30;84.70;;;;;;4934264;29;20560;-74
2021/03/04 03:19:51;;;;;;;95.50;51.17;;;8.40;84.80;;;;;;4933586;29;20131;-75
2021/03/04 03:22:17;;;;;;;106.00;56.83;;;8.50;84.70;;;;;;4935307;29;20102;-75
2021/03/04 03:24:42;;;;;;;97.43;52.77;;;8.40;84.40;;;;;;4933434;29;20100;-76
2021/03/04 03:27:08;;;;;;;96.03;51.53;;;8.40;84.50;;;;;;4934046;29;20040;-75
2021/03/04 03:29:34;;;;;;;95.53;49.83;;;8.40;84.40;;;;;;4936120;29;20035;-75
2021/03/04 03:31:59;;;;;;;99.97;52.63;;;8.40;84.40;;;;;;4933051;29;20054;-75
2021/03/04 03:34:26;;;;;;;94.47;51.30;;;8.30;84.10;;;;;;4918946;29;20035;-75
2021/03/04 03:36:54;;;;;;;91.03;47.93;;;8.30;84.40;;;;;;4900777;29;20130;-75
2021/03/04 03:39:21;;;;;;;100.43;51.77;;;8.50;84.60;;;;;;4936665;29;20050;-75
2021/03/04 03:41:47;;;;;;;95.90;51.27;;;8.30;83.80;;;;;;4929086;29;20568;-75
2021/03/04 03:44:14;;;;;;;114.73;57.53;;;8.20;84.70;;;;;;4933484;29;20130;-74
2021/03/04 03:46:41;;;;;;;113.00;55.47;;;8.20;84.40;;;;;;4935809;29;20031;-75
2021/03/04 03:49:08;;;;;;;117.03;57.07;;;7.90;84.50;;;;;;4917264;29;20047;-75
2021/03/04 03:51:37;;;;;;;126.27;60.33;;;7.80;84.90;;;;;;4929784;29;20035;-74
2021/03/04 03:54:04;;;;;;;130.17;58.57;;;7.70;84.90;;;;;;4916174;29;20167;-74
2021/03/04 03:56:31;;;;;;;124.07;57.03;;;7.70;85.60;;;;;;4929439;29;20056;-75
2021/03/04 03:59:00;;;;;;;123.60;57.13;;;7.70;86.00;;;;;;4935290;29;20059;-75
2021/03/04 04:01:31;;;;;;;128.67;61.00;;;7.80;86.00;;;;;;4913938;29;20039;-74
2021/03/04 04:04:01;;;;;;;126.03;59.27;;;7.80;85.60;;;;;;4914829;29;20099;-74
2021/03/04 04:06:31;;;;;;;120.80;56.20;;;7.80;85.70;;;;;;4930983;29;20515;-75
2021/03/04 04:08:58;;;;;;;114.40;53.73;;;7.80;85.60;;;;;;4902093;29;20127;-75
2021/03/04 04:11:25;;;;;;;108.50;52.30;;;7.80;85.80;;;;;;4925511;29;20039;-74
2021/03/04 04:13:52;;;;;;;115.67;54.70;;;8.00;86.10;;;;;;4931435;29;20114;-75
2021/03/04 04:16:18;;;;;;;119.20;55.33;;;8.10;85.90;;;;;;4917036;29;20060;-74
2021/03/04 04:18:45;;;;;;;124.47;55.97;;;8.20;85.50;;;;;;4933918;29;20039;-74
2021/03/04 04:21:12;;;;;;;119.40;54.70;;;8.30;85.50;;;;;;4932545;29;20028;-74
2021/03/04 04:23:39;;;;;;;118.17;54.23;;;8.30;85.30;;;;;;4934094;29;20043;-75
2021/03/04 04:26:05;;;;;;;113.93;53.47;;;8.30;85.30;;;;;;4931832;29;20035;-75
2021/03/04 04:28:31;;;;;;;112.17;51.90;;;8.30;85.20;;;;;;4918424;29;20042;-75
2021/03/04 04:30:56;;;;;;;106.43;50.23;;;8.40;84.90;;;;;;4917096;29;20064;-75
2021/03/04 04:33:22;;;;;;;118.77;52.13;;;8.40;85.10;;;;;;4931631;29;20520;-75
2021/03/04 04:35:48;;;;;;;119.87;53.03;;;8.40;84.70;;;;;;4912143;29;20051;-76
2021/03/04 04:38:14;;;;;;;124.40;55.77;;;8.30;84.40;;;;;;4928399;29;20059;-74
2021/03/04 04:40:40;;;;;;;123.93;54.97;;;8.20;84.30;;;;;;4904657;29;20028;-74
2021/03/04 04:43:06;;;;;;;115.93;52.47;;;8.10;84.80;;;;;;4933850;29;20027;-74
2021/03/04 04:45:31;;;;;;;132.83;57.07;;;8.30;85.10;;;;;;4932761;29;20036;-74
2021/03/04 04:47:57;;;;;;;114.07;52.47;;;8.30;84.70;;;;;;4932966;29;20040;-73
2021/03/04 04:50:23;;;;;;;109.43;51.00;;;8.20;84.80;;;;;;4918876;29;20032;-75
2021/03/04 04:52:49;;;;;;;114.07;53.17;;;8.30;84.90;;;;;;4914736;29;20761;-76
2021/03/04 04:55:15;;;;;;;116.97;54.30;;;8.30;84.60;;;;;;4911081;29;20043;-74
2021/03/04 04:57:40;;;;;;;120.50;54.03;;;8.20;84.20;;;;;;4898873;29;20560;-74
2021/03/04 05:00:09;;;;;;;111.37;49.80;;;8.00;84.30;;;;;;4898777;29;20063;-75
2021/03/04 05:02:35;;;;;;;125.93;55.93;;;8.20;85.00;;;;;;4932075;29;20036;-74
2021/03/04 05:05:00;;;;;;;120.67;53.23;;;8.10;84.00;;;;;;4932478;29;20106;-75
2021/03/04 05:07:26;;;;;;;127.63;53.60;;;7.90;84.10;;;;;;4925879;29;20039;-74
2021/03/04 05:09:52;;;;;;;122.13;53.40;;;7.90;84.60;;;;;;4914644;29;20036;-76
2021/03/04 05:12:19;;;;;;;125.40;54.67;;;8.00;85.20;;;;;;4923170;29;20301;-74
2021/03/04 05:14:45;;;;;;;115.20;52.20;;;8.00;85.10;;;;;;4905635;29;20109;-73
2021/03/04 05:17:10;;;;;;;115.43;51.30;;;7.90;85.10;;;;;;4895526;29;20168;-74
2021/03/04 05:19:36;;;;;;;121.23;53.00;;;8.10;85.20;;;;;;4896267;29;20071;-73
2021/03/04 05:22:02;;;;;;;118.30;53.70;;;8.20;85.10;;;;;;4904815;29;20039;-73
2021/03/04 05:24:27;;;;;;;117.97;51.03;;;8.20;84.80;;;;;;4917576;29;20067;-73
2021/03/04 05:26:53;;;;;;;123.40;53.53;;;8.20;84.60;;;;;;4931078;29;20473;-75
2021/03/04 05:29:19;;;;;;;115.87;51.67;;;8.10;84.00;;;;;;4917156;29;20118;-74
2021/03/04 05:31:44;;;;;;;123.17;53.47;;;8.00;84.40;;;;;;4931977;29;20500;-73
2021/03/04 05:34:10;;;;;;;117.67;50.53;;;8.00;84.50;;;;;;4933471;29;20528;-74
2021/03/04 05:36:36;;;;;;;124.07;52.03;;;8.10;84.80;;;;;;4913744;29;20504;-74
2021/03/04 05:39:02;;;;;;;133.03;55.00;;;8.10;84.80;;;;;;4932531;29;20031;-75
2021/03/04 05:41:28;;;;;;;126.37;52.87;;;8.10;84.60;;;;;;4932150;29;20031;-74
2021/03/04 05:43:55;;;;;;;140.17;55.87;;;8.20;84.60;;;;;;4933958;29;20028;-75
2021/03/04 05:46:22;;;;;;;133.53;55.37;;;8.20;84.50;;;;;;4928951;29;20044;-73
2021/03/04 05:48:50;;;;;;;134.53;55.97;;;8.10;84.20;;;;;;4915158;29;20020;-73
2021/03/04 05:51:24;;;;;;;130.37;54.67;;;8.10;84.80;;;;;;4932436;29;20250;-74
2021/03/04 05:53:55;;;;;;;120.63;50.80;;;8.20;84.90;;;;;;4932380;29;20036;-74
2021/03/04 05:56:22;;;;;;;130.73;52.47;;;8.10;84.80;;;;;;4929747;29;20151;-75
2021/03/04 05:58:47;;;;;;;114.87;50.27;;;8.10;85.00;;;;;;4913868;29;20110;-76
2021/03/04 06:01:13;;;;;;;119.73;52.43;;;8.10;84.80;;;;;;4914824;29;20176;-76
2021/03/04 06:03:40;;;;;;;99.50;47.27;;;8.00;84.70;;;;;;4932405;29;20039;-77
2021/03/04 06:06:07;;;;;;;98.13;46.80;;;7.90;84.70;;;;;;4914284;29;20028;-78
2021/03/04 06:08:36;;;;;;;84.13;40.60;;;7.70;84.90;;;;;;4916961;29;20039;-79
2021/03/04 06:11:03;;;;;;;86.80;43.00;;;7.60;85.30;;;;;;4929321;29;20043;-80
2021/03/04 06:13:29;;;;;;;89.47;42.73;;;7.60;86.00;;;;;;4914368;29;20122;-79
2021/03/04 06:15:55;;;;;;;77.30;38.13;;;7.60;86.30;;;;;;4921956;29;20044;-80
2021/03/04 06:18:21;;;;;;;71.93;35.80;;;7.70;87.00;;;;;;4921197;29;20044;-81
2021/03/04 06:20:47;;;;;;;75.60;36.50;;;7.80;87.10;;;;;;4932517;29;20028;-81
2021/03/04 06:23:13;;;;;;;71.33;35.40;;;7.90;87.20;;;;;;4930195;29;20400;-81
2021/03/04 06:25:39;;;;;;;70.63;36.07;;;7.90;86.70;;;;;;4897143;29;20416;-81
2021/03/04 06:28:06;;;;;;;63.27;32.93;;;7.90;86.80;;;;;;4920565;29;20038;-81
2021/03/04 06:30:39;;;;;;;60.33;31.33;;;8.00;86.50;;;;;;4936203;29;20036;-81
2021/03/04 06:33:08;;;;;;;51.83;27.93;;;8.00;86.60;;;;;;4934844;29;20046;-81
2021/03/04 06:35:46;;;;;;;49.10;27.10;;;8.00;86.40;;;;;;4920315;29;20055;-81
2021/03/04 06:38:13;;;;;;;50.03;28.63;;;8.00;86.40;;;;;;4898572;29;20123;-81
2021/03/04 06:40:40;;;;;;;51.90;29.13;;;8.00;86.70;;;;;;4905799;29;20036;-80
2021/03/04 06:43:05;;;;;;;51.40;28.50;;;8.00;87.10;;;;;;4897472;29;20367;-80
2021/03/04 06:45:38;;;;;;;51.87;28.77;;;8.10;87.00;;;;;;4909645;29;20043;-82
2021/03/04 06:48:35;;;;;;;53.88;29.42;;;8.20;86.90;;;;;;4902308;29;20476;-81
2021/03/04 06:51:03;;;;;;;57.40;33.37;;;8.20;86.60;;;;;;4920391;29;20036;-81
2021/03/04 06:53:30;;;;;;;55.37;31.50;;;8.30;86.70;;;;;;4917857;29;20065;-82
2021/03/04 06:56:01;;;;;;;57.17;32.57;;;8.30;86.20;;;;;;4901084;29;20473;-83
2021/03/04 06:58:37;;;;;;;56.07;31.63;;;8.20;86.00;;;;;;4901224;29;20488;-82
2021/03/04 07:01:11;;;;;;;59.60;33.57;;;8.10;86.10;;;;;;4927362;29;20032;-82
2021/03/04 07:03:51;;;;;;;61.77;34.77;;;8.20;86.00;;;;;;4935872;29;20439;-81
2021/03/04 07:06:26;;;;;;;60.47;36.00;;;8.10;86.20;;;;;;4917256;29;20095;-81
2021/03/04 07:08:53;;;;;;;54.27;31.07;;;8.30;86.40;;;;;;4916726;29;20040;-80
2021/03/04 07:11:24;;;;;;;51.60;31.27;;;8.20;85.50;;;;;;4921151;29;20032;-81
2021/03/04 07:13:51;;;;;;;53.73;31.27;;;8.20;85.70;;;;;;4908665;29;20035;-81
2021/03/04 07:16:20;;;;;;;47.00;27.97;;;8.30;86.10;;;;;;4914952;29;20056;-80
2021/03/04 07:18:51;;;;;;;54.77;32.17;;;8.20;85.10;;;;;;4916253;29;20032;-80
2021/03/04 07:21:18;;;;;;;60.20;36.40;;;8.10;85.70;;;;;;4921943;29;20024;-81
2021/03/04 07:23:46;;;;;;;57.40;35.27;;;8.20;86.10;;;;;;4935198;29;20031;-81
2021/03/04 07:26:13;;;;;;;57.37;33.17;;;8.20;85.90;;;;;;4918490;29;20176;-81
2021/03/04 07:28:41;;;;;;;57.40;34.23;;;8.30;86.00;;;;;;4916119;29;20028;-81
2021/03/04 07:31:09;;;;;;;50.00;31.00;;;8.30;85.60;;;;;;4918667;29;20029;-81
2021/03/04 07:33:36;;;;;;;43.07;27.07;;;8.10;85.00;;;;;;4892421;29;20040;-81
2021/03/04 07:36:08;;;;;;;46.47;29.80;;;7.90;85.20;;;;;;4907464;29;20462;-81
2021/03/04 07:38:34;;;;;;;48.10;30.70;;;7.80;85.40;;;;;;4926944;29;20040;-81
2021/03/04 07:41:12;;;;;;;49.30;33.03;;;7.80;85.90;;;;;;4906428;29;20040;-81
2021/03/04 07:43:55;;;;;;;46.50;30.43;;;7.90;86.00;;;;;;4909654;29;20027;-81
2021/03/04 07:46:27;;;;;;;50.25;33.08;;;7.80;85.60;;;;;;4915716;29;20060;-82
2021/03/04 07:48:53;;;;;;;42.03;28.33;;;7.80;85.70;;;;;;4915809;29;20115;-82
2021/03/04 07:51:19;;;;;;;60.60;37.53;;;7.80;85.50;;;;;;4924967;29;20562;-81
2021/03/04 07:53:46;;;;;;;45.33;27.67;;;7.80;85.70;;;;;;4933448;29;20032;-81
2021/03/04 07:56:28;;;;;;;48.63;33.00;;;7.80;85.80;;;;;;4888824;29;20501;-81
2021/03/04 07:59:10;;;;;;;46.53;31.20;;;7.80;86.30;;;;;;4932166;29;20039;-81
2021/03/04 08:01:36;;;;;;;42.97;28.03;;;7.90;86.60;;;;;;4934477;29;20028;-80
2021/03/04 08:04:02;;;;;;;54.53;36.73;;;7.90;86.30;;;;;;4912586;29;20103;-81
2021/03/04 08:06:28;;;;;;;38.30;27.10;;;8.10;86.50;;;;;;4911522;29;20059;-81
2021/03/04 08:08:54;;;;;;;37.73;26.17;;;8.10;86.00;;;;;;4922863;29;20046;-81
2021/03/04 08:11:27;;;;;;;46.00;32.47;;;8.10;85.50;;;;;;4913556;29;20032;-81
2021/03/04 08:13:53;;;;;;;35.20;23.43;;;8.20;86.00;;;;;;4915188;29;20036;-81
2021/03/04 08:16:20;;;;;;;39.30;26.27;;;8.20;85.50;;;;;;4931836;29;20098;-81
2021/03/04 08:18:56;;;;;;;49.73;34.20;;;8.10;85.50;;;;;;4935548;29;20060;-82
2021/03/04 08:21:22;;;;;;;50.60;27.83;;;8.10;86.00;;;;;;4925272;29;20127;-82
2021/03/04 08:23:47;;;;;;;59.90;26.77;;;8.20;85.80;;;;;;4917378;29;20521;-82
2021/03/04 08:26:25;;;;;;;56.53;28.27;;;8.20;85.60;;;;;;4931525;29;20087;-84
2021/03/04 08:29:11;;;;;;;51.37;27.43;;;8.20;85.90;;;;;;4934261;29;20031;-82
2021/03/04 08:31:47;;;;;;;56.17;31.57;;;8.10;85.60;;;;;;4916382;29;20028;-82
2021/03/04 08:34:13;;;;;;;47.40;29.23;;;8.20;85.90;;;;;;4916580;29;20099;-84
2021/03/04 08:36:50;;;;;;;46.97;26.97;;;8.30;85.70;;;;;;4899009;29;20040;-82
2021/03/04 08:39:18;;;;;;;40.30;25.70;;;8.20;85.50;;;;;;4924237;29;20039;-83
2021/03/04 08:41:45;;;;;;;35.77;24.00;;;8.20;85.60;;;;;;4920984;29;20028;-85
2021/03/04 08:44:16;;;;;;;44.43;26.20;;;8.30;85.50;;;;;;4904857;29;20036;-83
2021/03/04 08:46:42;;;;;;;48.13;27.47;;;8.20;85.10;;;;;;4909251;29;20040;-83
2021/03/04 08:49:09;;;;;;;32.40;22.00;;;8.00;84.80;;;;;;4915987;29;20040;-84
2021/03/04 08:51:42;;;;;;;49.37;32.30;;;8.00;84.90;;;;;;4917742;29;20094;-82
2021/03/04 08:54:22;;;;;;;52.20;32.13;;;7.90;85.60;;;;;;4934297;29;20031;-81
2021/03/04 08:56:54;;;;;;;50.90;33.23;;;7.90;85.80;;;;;;4920103;29;20102;-82
2021/03/04 08:59:28;;;;;;;46.53;30.97;;;7.90;85.70;;;;;;4923070;29;20028;-85
2021/03/04 09:01:55;;;;;;;45.77;29.60;;;8.10;85.90;;;;;;4895791;29;20073;-84
2021/03/04 09:04:22;;;;;;;44.60;30.87;;;8.00;85.00;;;;;;4899117;29;20035;-84
2021/03/04 09:06:49;;;;;;;47.67;31.17;;;8.10;85.60;;;;;;4901375;29;20178;-83
2021/03/04 09:09:28;;;;;;;47.20;31.40;;;8.10;85.30;;;;;;4913891;29;20111;-84
2021/03/04 09:11:55;;;;;;;38.50;26.07;;;8.20;85.10;;;;;;4917949;29;20106;-83
2021/03/04 09:14:29;;;;;;;41.07;28.07;;;8.10;84.40;;;;;;4913063;29;20510;-84
2021/03/04 09:16:55;;;;;;;53.53;32.57;;;8.10;84.70;;;;;;4941330;28;20048;-84
2021/03/04 09:19:33;;;;;;;46.10;29.87;;;8.10;85.00;;;;;;4891826;29;20032;-82
2021/03/04 09:22:10;;;;;;;43.40;29.33;;;8.20;85.00;;;;;;4914451;29;20114;-84
2021/03/04 09:24:37;;;;;;;42.57;29.73;;;8.20;84.60;;;;;;4914425;29;20305;-83
2021/03/04 09:27:05;;;;;;;39.67;26.70;;;8.30;84.80;;;;;;4911099;29;20036;-80
2021/03/04 09:29:32;;;;;;;41.57;26.13;;;8.30;84.50;;;;;;4931245;29;20118;-83
2021/03/04 09:31:57;;;;;;;36.10;23.77;;;8.30;84.60;;;;;;4933989;29;20047;-83
2021/03/04 09:34:38;;;;;;;32.67;21.93;;;8.30;84.30;;;;;;4917473;29;20036;-83
2021/03/04 09:37:15;;;;;;;28.17;18.33;;;8.20;84.20;;;;;;4917543;29;20048;-83
2021/03/04 09:39:48;;;;;;;26.23;17.83;;;8.10;84.00;;;;;;4935383;29;20421;-82
2021/03/04 09:42:32;;;;;;;;;;;8.10;84.00;;;;;;4933176;29;20044;-81
2021/03/04 09:45:05;;;;;;;22.53;14.73;;;8.10;83.20;;;;;;4919517;29;19910;-83
2021/03/04 09:47:33;;;;;;;24.75;15.88;;;7.70;83.80;;;;;;4925665;29;20024;-81
2021/03/04 09:50:00;;;;;;;23.30;16.27;;;7.80;84.40;;;;;;4932923;29;20028;-83
2021/03/04 09:52:28;;;;;;;24.53;15.07;;;7.90;84.60;;;;;;4916468;29;20055;-83
2021/03/04 09:55:12;;;;;;;24.37;15.63;;;7.90;84.60;;;;;;4914514;29;20036;-82
2021/03/04 09:57:42;;;;;;;22.10;14.57;;;8.10;84.90;;;;;;4931818;29;20028;-82
2021/03/04 10:00:19;;;;;;;19.17;13.03;;;8.00;84.10;;;;;;4937776;29;20131;-82
2021/03/04 10:02:47;;;;;;;21.40;14.20;;;8.10;84.20;;;;;;4935968;29;20051;-84
2021/03/04 10:05:18;;;;;;;20.67;14.37;;;8.20;84.30;;;;;;4938939;29;20027;-81
2021/03/04 10:07:43;;;;;;;23.37;15.50;;;8.20;83.80;;;;;;4921722;29;20044;-83
2021/03/04 10:10:22;;;;;;;21.50;14.23;;;8.20;83.80;;;;;;4939612;29;20099;-83
2021/03/04 10:12:57;;;;;;;27.13;17.53;;;8.10;83.70;;;;;;4918058;29;20197;-82
2021/03/04 10:15:34;;;;;;;17.37;11.97;;;8.00;83.70;;;;;;4923508;29;20032;-83
2021/03/04 10:18:07;;;;;;;21.20;13.50;;;8.00;83.40;;;;;;4902866;29;20056;-82
2021/03/04 10:20:33;;;;;;;21.17;13.05;;;7.90;83.60;;;;;;4921245;29;20136;-82
2021/03/04 10:22:59;;;;;;;19.37;12.53;;;7.80;83.60;;;;;;4922003;29;20130;-82
2021/03/04 10:25:24;;;;;;;20.50;13.33;;;7.90;84.10;;;;;;4924897;29;20119;-83
2021/03/04 10:27:51;;;;;;;19.57;12.73;;;7.80;83.40;;;;;;4917740;29;20040;-83
2021/03/04 10:30:18;;;;;;;19.23;13.53;;;7.80;83.80;;;;;;4901822;29;20035;-81
2021/03/04 10:32:44;;;;;;;18.07;12.40;;;8.00;84.50;;;;;;4931838;29;20043;-82
2021/03/04 10:35:12;;;;;;;16.83;10.43;;;8.00;84.10;;;;;;4918062;29;20044;-83
2021/03/04 10:37:39;;;;;;;18.87;12.20;;;8.00;83.30;;;;;;4929423;29;20044;-82
2021/03/04 10:40:07;;;;;;;19.73;11.60;;;7.90;83.40;;;;;;4908710;29;20118;-83
2021/03/04 10:42:33;;;;;;;18.50;11.60;;;7.90;84.00;;;;;;4902594;29;20028;-83
2021/03/04 10:44:59;;;;;;;14.60;10.00;;;7.90;83.60;;;;;;4916477;29;20024;-83
2021/03/04 10:47:29;;;;;;;17.17;10.77;;;8.00;83.70;;;;;;4915182;29;20177;-83
2021/03/04 10:49:55;;;;;;;21.37;10.83;;;7.90;83.80;;;;;;4924021;29;20381;-84
2021/03/04 10:52:22;;;;;;;16.60;10.40;;;8.00;83.80;;;;;;4922380;29;20031;-83
2021/03/04 10:54:48;;;;;;;16.10;9.70;;;8.10;84.00;;;;;;4931079;29;20047;-83
2021/03/04 10:57:14;;;;;;;17.20;10.67;;;8.10;83.40;;;;;;4915728;29;20033;-83
2021/03/04 10:59:39;;;;;;;15.67;10.33;;;8.10;83.90;;;;;;4907026;29;20039;-82
2021/03/04 11:02:05;;;;;;;16.37;9.87;;;8.20;83.80;;;;;;4893159;29;20035;-83
2021/03/04 11:04:30;;;;;;;17.00;10.07;;;8.30;83.40;;;;;;4930813;29;20460;-83
2021/03/04 11:06:56;;;;;;;15.10;9.83;;;8.10;82.20;;;;;;4914891;29;20083;-81
2021/03/04 11:09:22;;;;;;;18.53;9.63;;;8.10;83.00;;;;;;4919849;29;20059;-82
2021/03/04 11:11:48;;;;;;;15.37;9.83;;;8.20;83.50;;;;;;4902973;29;20055;-82
2021/03/04 11:14:14;;;;;;;15.13;9.43;;;8.20;83.20;;;;;;4917654;29;20024;-82
2021/03/04 11:16:39;;;;;;;14.10;8.60;;;8.40;83.60;;;;;;4915738;29;20136;-82
2021/03/04 11:19:05;;;;;;;18.17;10.07;;;8.40;82.30;;;;;;4894060;29;20063;-82
2021/03/04 11:21:31;;;;;;;30.67;14.53;;;8.30;82.50;;;;;;4914328;29;20109;-82
2021/03/04 11:23:57;;;;;;;41.90;18.17;;;8.30;82.60;;;;;;4905005;29;20035;-81
2021/03/04 11:26:23;;;;;;;21.53;11.30;;;8.10;81.20;;;;;;4904064;29;20110;-82
2021/03/04 11:28:49;;;;;;;14.40;8.07;;;8.00;81.70;;;;;;4912777;29;20095;-81
2021/03/04 11:31:14;;;;;;;15.63;8.87;;;8.00;82.70;;;;;;4908661;29;20051;-81
2021/03/04 11:33:40;;;;;;;12.07;7.60;;;8.00;82.40;;;;;;4908737;29;20031;-81
2021/03/04 11:36:06;;;;;;;13.17;8.70;;;8.20;83.30;;;;;;4919221;29;20032;-81
2021/03/04 11:38:31;;;;;;;12.63;7.43;;;8.30;82.70;;;;;;4899288;29;20044;-81
2021/03/04 11:40:57;;;;;;;11.70;7.27;;;8.20;81.60;;;;;;4915364;29;20159;-81
2021/03/04 11:43:23;;;;;;;15.00;7.67;;;8.00;81.10;;;;;;4931116;29;20036;-81
2021/03/04 11:45:48;;;;;;;14.73;8.33;;;8.00;82.20;;;;;;4916344;29;20039;-81
2021/03/04 11:48:14;;;;;;;15.47;8.57;;;7.90;82.00;;;;;;4918574;29;20039;-81
2021/03/04 11:50:40;;;;;;;14.50;8.13;;;8.00;82.40;;;;;;4904493;29;20028;-81
2021/03/04 11:53:08;;;;;;;14.47;8.97;;;8.00;82.30;;;;;;4927086;29;20099;-81
2021/03/04 11:55:34;;;;;;;13.10;8.20;;;7.90;82.10;;;;;;4913930;29;20050;-82
2021/03/04 11:58:00;;;;;;;16.27;8.77;;;8.00;82.40;;;;;;4915831;29;20036;-80
2021/03/04 12:00:26;;;;;;;16.17;8.43;;;7.90;82.00;;;;;;4914759;29;20436;-81
2021/03/04 12:02:52;;;;;;;16.63;8.87;;;7.90;82.70;;;;;;4898823;29;20038;-81
2021/03/04 12:05:18;;;;;;;18.00;10.30;;;7.90;83.10;;;;;;4903170;29;20040;-80
2021/03/04 12:07:44;;;;;;;19.13;10.47;;;7.90;82.80;;;;;;4931369;29;20118;-81
2021/03/04 12:10:11;;;;;;;21.20;10.90;;;8.10;83.40;;;;;;4913504;29;20028;-79
2021/03/04 12:12:37;;;;;;;23.43;11.30;;;8.20;83.40;;;;;;4930870;29;20026;-80
2021/03/04 12:15:04;;;;;;;26.83;12.90;;;8.30;83.20;;;;;;4922016;29;20117;-81
2021/03/04 12:17:29;;;;;;;26.77;12.57;;;8.30;82.60;;;;;;4924524;29;20048;-81
2021/03/04 12:19:55;;;;;;;27.23;13.37;;;8.10;82.60;;;;;;4913590;29;20044;-81
2021/03/04 12:22:21;;;;;;;33.13;12.97;;;8.10;83.20;;;;;;4899507;29;20047;-81
2021/03/04 12:24:46;;;;;;;33.90;14.27;;;8.10;83.20;;;;;;4914946;29;20519;-81
2021/03/04 12:27:12;;;;;;;38.87;16.43;;;8.10;83.30;;;;;;4893968;29;20044;-82
2021/03/04 12:29:38;;;;;;;44.53;16.90;;;8.00;83.20;;;;;;4913685;29;20051;-82
2021/03/04 12:32:04;;;;;;;53.00;21.30;;;8.00;83.40;;;;;;4918161;29;20032;-81
2021/03/04 12:34:30;;;;;;;54.63;21.57;;;8.10;83.80;;;;;;4912528;29;20025;-81
2021/03/04 12:36:56;;;;;;;48.37;22.03;;;8.00;83.60;;;;;;4905670;29;20571;-81
2021/03/04 12:39:21;;;;;;;51.70;23.07;;;8.00;83.60;;;;;;4934581;29;20020;-81
2021/03/04 12:41:47;;;;;;;63.50;25.97;;;8.10;83.60;;;;;;4930669;29;20095;-82